Time;durP1;ratioP1;P1;durP2;ratioP2;P2;SDS_P1;SDS_P2;PMS_P1;PMS_P2;Temp;Humidity;BMP_temperature;BMP_pressure;BME280_temperature;BME280_humidity;BME280_pressure;Samples;Min_cycle;Max_cycle;Signal;HPM_P1;HPM_P2
2022/08/28 00:02:20;;;;;;;141.88;75.97;;;;;;;22.55;41.63;100002.09;5009519;22;20066;-92
2022/08/28 00:05:43;;;;;;;157.30;81.10;;;;;;;22.49;41.26;99996.06;4958064;28;20035;-94
2022/08/28 00:08:18;;;;;;;165.05;82.10;;;;;;;22.46;41.16;100005.19;5052273;22;20046;31
2022/08/28 00:11:25;;;;;;;161.02;81.82;;;;;;;22.47;41.66;99995.63;4952050;28;20042;-91
2022/08/28 00:14:01;;;;;;;160.45;85.25;;;;;;;22.41;42.58;99991.56;4970704;28;20038;-95
2022/08/28 00:17:03;;;;;;;167.90;87.43;;;;;;;22.34;43.05;99991.47;4939001;29;20065;-92
2022/08/28 00:22:05;;;;;;;177.60;89.45;;;;;;;22.21;44.51;99988.88;4968671;28;20069;-96
2022/08/28 00:46:11;;;;;;;220.20;113.90;;;;;;;21.88;43.55;99939.44;4968674;28;20059;-93
2022/08/28 00:48:38;;;;;;;208.70;113.43;;;;;;;21.44;42.94;99872.34;4951110;28;20070;-92
2022/08/28 00:55:32;;;;;;;219.98;111.93;;;;;;;22.15;42.65;99970.06;4965740;28;20039;-93
2022/08/28 00:58:12;;;;;;;208.00;108.90;;;;;;;21.86;42.95;99941.81;4878612;29;20061;-96
2022/08/28 01:01:03;;;;;;;200.15;104.03;;;;;;;22.08;42.99;99976.31;4894510;22;20025;-96
2022/08/28 01:08:13;;;;;;;186.38;102.75;;;;;;;22.00;43.13;99967.06;5011979;23;20077;-93
2022/08/28 01:11:02;;;;;;;190.35;103.50;;;;;;;21.96;43.11;99966.22;4973936;28;20043;-95
2022/08/28 01:13:47;;;;;;;190.65;99.40;;;;;;;21.75;43.56;99930.47;4976610;28;20042;-91
2022/08/28 01:19:40;;;;;;;177.95;95.47;;;;;;;22.00;43.54;99964.28;4976998;28;20114;-92
2022/08/28 01:22:52;;;;;;;184.25;95.30;;;;;;;22.00;43.75;99963.47;4966195;28;20048;-94
2022/08/28 01:25:30;;;;;;;181.73;91.93;;;;;;;21.80;43.71;99935.75;4959327;23;20054;-93
2022/08/28 01:38:33;;;;;;;184.73;93.03;;;;;;;21.83;44.55;99945.31;5047453;22;20063;-95
2022/08/28 01:49:54;;;;;;;174.55;92.28;;;;;;;21.69;45.50;99948.69;5011063;22;20124;-92
2022/08/28 01:52:20;;;;;;;173.93;91.25;;;;;;;21.26;45.34;99897.88;4991702;22;20050;-93
2022/08/28 01:55:22;;;;;;;181.30;91.80;;;;;;;21.53;45.79;99950.81;5021239;23;20064;-92
2022/08/28 02:16:35;;;;;;;187.02;93.75;;;;;;;21.22;47.51;99951.78;5016327;22;20035;-92
2022/08/28 02:19:20;;;;;;;165.07;91.45;;;;;;;20.79;47.65;99890.63;4990896;28;20046;-93
2022/08/28 02:22:12;;;;;;;187.27;94.50;;;;;;;20.55;47.79;99850.09;4973985;28;20049;-93
2022/08/28 02:24:39;;;;;;;175.80;91.30;;;;;;;20.92;47.90;99910.72;4949329;28;20050;-92
2022/08/28 02:27:06;;;;;;;173.68;91.00;;;;;;;20.51;47.91;99845.66;4966677;28;20051;-93
2022/08/28 02:29:40;;;;;;;172.30;90.43;;;;;;;20.53;48.32;99852.44;4966463;28;20064;-92
2022/08/28 02:32:07;;;;;;;163.65;86.65;;;;;;;20.71;48.29;99885.31;4938910;28;20034;-93
2022/08/28 02:42:19;;;;;;;164.23;85.20;;;;;;;21.06;48.62;99941.59;4989213;28;20046;-91
2022/08/28 02:44:46;;;;;;;159.52;85.30;;;;;;;20.67;49.01;99878.91;4962519;28;20022;-96
2022/08/28 02:47:56;;;;;;;152.18;82.82;;;;;;;20.77;49.07;99901.34;5024958;23;20701;-90
2022/08/28 02:50:35;;;;;;;159.45;84.03;;;;;;;21.09;49.49;99954.75;5333453;23;20033;-92
2022/08/28 02:59:26;;;;;;;167.65;86.88;;;;;;;20.44;49.06;99837.16;2546794;23;20306;-92
2022/08/28 03:05:14;;;;;;;169.85;87.07;;;;;;;21.02;49.29;99954.59;4921659;29;20052;-93
2022/08/28 03:13:56;;;;;;;163.30;86.28;;;;;;;20.37;49.84;99854.47;4975837;28;20062;-91
2022/08/28 03:16:55;;;;;;;161.82;86.28;;;;;;;20.46;49.76;99865.34;4943440;29;20032;-91
2022/08/28 03:34:08;;;;;;;158.30;85.03;;;;;;;20.83;50.33;99899.88;4973959;23;20072;-93
2022/08/28 03:47:45;;;;;;;158.65;84.03;;;;;;;20.49;50.76;99840.41;5035342;23;20095;-90
2022/08/28 03:50:16;;;;;;;166.75;85.93;;;;;;;20.62;51.08;99864.13;4946336;29;20039;-93
2022/08/28 03:57:25;;;;;;;153.18;81.63;;;;;;;20.56;51.85;99859.22;4982662;23;20055;-96
2022/08/28 03:59:52;;;;;;;157.10;84.60;;;;;;;20.62;52.63;99866.91;4913078;29;20032;-91
2022/08/28 04:02:28;;;;;;;163.88;82.28;;;;;;;20.40;51.87;99818.44;5067797;23;20027;-93
2022/08/28 04:08:31;;;;;;;156.55;82.68;;;;;;;21.23;52.25;99937.53;5292202;23;20828;31
2022/08/28 04:11:00;;;;;;;166.23;84.25;;;;;;;20.62;52.08;99846.66;4921182;29;20048;-94
2022/08/28 04:13:41;;;;;;;151.75;83.20;;;;;;;20.87;51.41;99878.50;4923470;29;20024;-96
2022/08/28 04:18:58;;;;;;;164.55;83.00;;;;;;;21.00;50.02;99879.13;4979271;23;20051;-91
2022/08/28 04:21:28;;;;;;;164.52;86.07;;;;;;;21.18;51.16;99895.31;4974699;23;20047;31
2022/08/28 04:26:52;;;;;;;167.10;86.35;;;;;;;20.75;51.67;99817.53;5105812;23;20079;-91
2022/08/28 04:29:30;;;;;;;200.10;84.68;;;;;;;21.47;51.93;99941.94;5008831;23;20051;-94
2022/08/28 04:42:39;;;;;;;165.50;83.85;;;;;;;21.21;52.21;99889.03;4939744;23;20406;-90
2022/08/28 04:45:31;;;;;;;169.13;86.05;;;;;;;21.57;52.45;99949.66;4947021;23;20054;-92
2022/08/28 04:48:00;;;;;;;162.75;85.82;;;;;;;21.21;52.66;99889.81;4958645;28;20074;-92
2022/08/28 04:54:55;;;;;;;162.75;84.43;;;;;;;21.04;51.59;99845.84;4962331;29;20089;-96
2022/08/28 04:57:21;;;;;;;159.85;84.97;;;;;;;21.32;52.51;99862.19;4947027;29;20071;-92
2022/08/28 05:09:23;;;;;;;164.48;84.72;;;;;;;21.40;51.95;99865.94;5008140;23;20055;-91
2022/08/28 05:16:01;;;;;;;158.40;87.15;;;;;;;21.85;51.84;99917.09;4961532;23;20528;-94
2022/08/28 05:18:52;;;;;;;178.65;86.97;;;;;;;21.87;51.76;99914.75;4885938;29;20047;-93
2022/08/28 05:27:37;;;;;;;183.20;87.40;;;;;;;22.10;51.73;99906.34;3669955;23;20316;31
2022/08/28 05:30:57;;;;;;;172.85;91.18;;;;;;;22.17;50.59;99898.91;4890519;29;20053;-92
2022/08/28 06:43:55;;;;;;;;;;;;;;;23.57;49.45;99872.53;4990205;28;20063;-93
2022/08/28 06:47:01;;;;;;;169.15;86.50;;;;;;;23.52;50.67;99867.31;5010340;23;20101;-94
2022/08/28 06:50:44;;;;;;;162.43;85.65;;;;;;;23.71;50.55;99866.28;4948409;29;20091;-94
2022/08/28 06:54:29;;;;;;;171.27;85.95;;;;;;;23.71;50.65;99829.97;4962115;23;20159;-96
2022/08/28 07:02:08;;;;;;;159.40;79.22;;;;;;;24.27;48.45;99863.03;5098201;23;20087;-93
2022/08/28 07:04:36;;;;;;;187.82;83.10;;;;;;;24.37;48.83;99856.69;4925776;29;20509;-95
2022/08/28 07:07:15;;;;;;;198.13;84.57;;;;;;;24.37;48.70;99841.88;4924272;29;20036;-94
2022/08/28 07:09:42;;;;;;;181.98;83.57;;;;;;;23.96;47.91;99754.75;4904178;29;20486;-92
2022/08/28 07:12:18;;;;;;;213.63;83.57;;;;;;;24.35;47.02;99822.72;4924273;29;20134;-92
2022/08/28 07:15:11;;;;;;;172.13;83.55;;;;;;;24.64;48.35;99864.78;4920728;29;20028;-91
2022/08/28 07:17:47;;;;;;;328.55;88.60;;;;;;;24.40;48.14;99804.75;4923478;29;20169;-93
2022/08/28 07:20:13;;;;;;;199.47;78.13;;;;;;;24.49;48.27;99805.22;4904448;29;20040;-96
2022/08/28 07:22:42;;;;;;;;;;;;;;;24.99;46.55;99861.25;4932387;29;20047;-92
2022/08/28 07:29:49;;;;;;;125.10;65.88;;;;;;;25.27;44.12;99848.53;4963451;28;20079;-94
2022/08/28 07:32:16;;;;;;;129.20;69.00;;;;;;;25.00;45.33;99790.13;4928190;29;20079;-94
2022/08/28 07:34:51;;;;;;;;;;;;;;;25.52;44.42;99846.50;4935011;29;20039;-91
2022/08/28 07:38:18;;;;;;;149.20;69.25;;;;;;;25.58;45.02;99852.50;4926055;29;20300;-90
2022/08/28 07:41:31;;;;;;;145.88;68.15;;;;;;;25.58;44.13;99854.50;4913396;29;20031;-94
2022/08/28 07:50:54;;;;;;;132.18;58.55;;;;;;;25.75;42.81;99853.66;5065561;23;20147;-95
2022/08/28 07:53:46;;;;;;;118.47;59.85;;;;;;;25.89;42.37;99850.84;4927080;29;20087;-92
2022/08/28 07:56:15;;;;;;;127.25;63.80;;;;;;;25.61;42.85;99787.28;4947052;28;20040;-94
2022/08/28 08:06:53;;;;;;;149.05;71.22;;;;;;;26.43;43.66;99840.28;4963422;28;20126;-92
2022/08/28 08:09:20;;;;;;;142.80;68.22;;;;;;;26.16;43.80;99783.16;4965678;28;20105;-91
2022/08/28 08:12:37;;;;;;;127.28;67.32;;;;;;;26.57;42.37;99830.22;5028673;23;20055;-92
2022/08/28 08:18:44;;;;;;;130.73;67.03;;;;;;;26.72;43.90;99834.50;4940425;29;20039;-90
2022/08/28 08:21:14;;;;;;;154.43;69.07;;;;;;;26.79;43.26;99830.88;4893256;29;20052;-91
2022/08/28 08:25:03;;;;;;;153.20;66.45;;;;;;;26.85;42.05;99837.66;4913429;29;20048;-89
2022/08/28 08:28:34;;;;;;;148.95;66.93;;;;;;;26.89;43.10;99836.44;4940400;29;20062;-89
2022/08/28 08:32:05;;;;;;;143.50;66.40;;;;;;;26.95;42.35;99836.78;4915255;29;20044;-94
2022/08/28 08:35:01;;;;;;;143.93;65.75;;;;;;;27.01;40.98;99831.53;4902378;29;20095;-92
2022/08/28 08:37:29;;;;;;;229.95;66.05;;;;;;;26.56;42.44;99762.13;5044912;23;20210;-92
2022/08/28 08:39:55;;;;;;;149.20;65.97;;;;;;;27.10;41.67;99824.25;4905943;29;20036;-94
2022/08/28 08:50:35;;;;;;;135.75;68.28;;;;;;;27.35;40.97;99796.00;4959502;23;20106;-91
2022/08/28 08:53:52;;;;;;;141.77;69.55;;;;;;;27.53;40.85;99832.31;4945109;29;20035;-90
2022/08/28 08:56:32;;;;;;;142.13;69.22;;;;;;;27.26;41.46;99787.25;4925962;29;20047;-90
2022/08/28 08:59:01;;;;;;;141.20;64.72;;;;;;;27.55;41.72;99831.88;4916945;29;20047;-90
2022/08/28 09:01:43;;;;;;;135.00;61.83;;;;;;;27.37;40.52;99789.94;4944709;29;20043;-94
2022/08/28 09:05:05;;;;;;;150.77;65.05;;;;;;;27.66;40.88;99823.38;4928174;29;20047;-94
2022/08/28 09:08:30;;;;;;;132.15;62.85;;;;;;;27.69;40.30;99822.53;4925510;29;20045;-92
2022/08/28 09:11:24;;;;;;;;;;;;;;;27.68;38.91;99826.53;4922189;29;20035;-91
2022/08/28 09:21:28;;;;;;;111.25;44.35;;;;;;;27.23;36.38;99717.09;4950863;28;20043;-90
2022/08/28 09:24:54;;;;;;;111.18;40.90;;;;;;;27.88;35.87;99799.47;4932073;29;20453;-90
2022/08/28 09:28:19;;;;;;;99.57;37.60;;;;;;;28.02;35.08;99793.69;4935104;28;20070;-93
2022/08/28 09:30:55;;;;;;;87.63;42.50;;;;;;;27.96;36.71;99772.09;4943867;29;20043;-89
2022/08/28 09:33:52;;;;;;;87.28;42.35;;;;;;;28.28;35.22;99800.59;4917491;29;20055;-93
2022/08/28 09:36:43;;;;;;;87.28;38.28;;;;;;;28.37;34.01;99799.25;4939403;28;20047;-93
2022/08/28 09:39:32;;;;;;;114.43;40.78;;;;;;;28.13;34.42;99747.78;4924957;23;20155;-93
2022/08/28 09:48:42;;;;;;;81.30;34.67;;;;;;;28.80;33.04;99789.00;4950424;29;20056;-91
2022/08/28 09:51:20;;;;;;;66.15;31.45;;;;;;;28.91;34.47;99783.22;4919559;29;20138;-91
2022/08/28 09:54:26;;;;;;;112.82;35.30;;;;;;;28.47;33.03;99699.91;4921527;28;20043;-92
2022/08/28 09:56:53;;;;;;;108.60;39.13;;;;;;;28.56;33.97;99697.38;4916271;29;20143;-91
2022/08/28 09:59:29;;;;;;;74.60;34.33;;;;;;;28.92;32.17;99742.59;4937006;29;20539;-91
2022/08/28 10:02:48;;;;;;;74.63;32.35;;;;;;;29.27;32.44;99771.38;4965335;28;20138;-91
2022/08/28 10:05:18;;;;;;;62.85;30.58;;;;;;;28.96;30.12;99714.38;4953168;28;20043;-92
2022/08/28 10:07:57;;;;;;;73.13;32.38;;;;;;;29.38;33.25;99774.00;4967901;23;20059;-92
2022/08/28 10:10:58;;;;;;;71.13;29.48;;;;;;;28.95;31.35;99695.91;4956513;29;20066;-95
2022/08/28 10:14:15;;;;;;;97.80;29.60;;;;;;;29.07;28.60;99698.13;4944363;23;20039;-94
2022/08/28 10:17:33;;;;;;;88.32;30.25;;;;;;;29.54;28.70;99754.41;4925446;29;20051;-90
2022/08/28 10:20:02;;;;;;;61.08;27.83;;;;;;;29.62;28.71;99761.50;4927701;29;20054;-91
2022/08/28 10:22:57;;;;;;;62.83;28.60;;;;;;;29.75;29.10;99760.88;4943217;23;20497;-87
2022/08/28 10:26:45;;;;;;;56.65;25.75;;;;;;;29.89;29.46;99760.56;4907367;29;20048;-89
2022/08/28 10:33:39;;;;;;;60.28;25.73;;;;;;;29.94;26.84;99760.06;4945340;28;20572;-93
2022/08/28 10:36:36;;;;;;;75.45;28.13;;;;;;;29.84;28.03;99724.44;4945408;29;20435;-89
2022/08/28 10:43:51;;;;;;;72.90;34.03;;;;;;;30.05;26.76;99703.44;4932816;23;20057;-91
2022/08/28 11:01:20;;;;;;;61.08;29.88;;;;;;;29.63;29.49;99649.59;5164247;23;21009;-92
2022/08/28 11:04:51;;;;;;;62.03;28.80;;;;;;;30.32;27.00;99745.56;4907725;29;20102;-91
2022/08/28 11:07:52;;;;;;;80.40;25.02;;;;;;;30.32;26.26;99745.56;4933491;23;20052;-94
2022/08/28 11:17:40;;;;;;;56.47;24.17;;;;;;;29.98;25.94;99726.16;4952062;23;20061;-92
2022/08/28 11:23:23;;;;;;;61.80;28.10;;;;;;;29.72;26.90;99726.69;4950444;23;20062;-92
2022/08/28 11:28:46;;;;;;;73.38;28.05;;;;;;;29.45;26.71;99692.19;4959292;29;20043;-92
2022/08/28 11:31:16;;;;;;;68.00;24.90;;;;;;;29.49;26.09;99707.00;4941641;23;20036;-95
2022/08/28 11:38:24;;;;;;;57.90;26.73;;;;;;;29.40;26.97;99715.22;4977207;23;20556;-94
2022/08/28 11:44:44;;;;;;;70.22;25.98;;;;;;;29.09;28.80;99678.00;2530738;23;20043;-89
2022/08/28 11:47:40;;;;;;;135.23;28.67;;;;;;;29.33;29.08;99718.97;4935698;29;20024;-89
2022/08/28 11:54:16;;;;;;;89.65;27.67;;;;;;;28.90;28.33;99637.28;4909497;29;20067;-92
2022/08/28 12:01:08;;;;;;;69.00;29.95;;;;;;;29.35;32.42;99674.28;4957106;29;20048;-90
2022/08/28 12:04:06;;;;;;;68.45;28.25;;;;;;;29.50;31.77;99680.41;4959016;29;20050;-89
2022/08/28 12:11:07;;;;;;;63.55;25.67;;;;;;;29.95;28.78;99688.34;4921923;29;20058;-92
2022/08/28 12:14:20;;;;;;;88.53;26.75;;;;;;;30.25;30.08;99687.31;4948480;29;20039;-92
2022/08/28 12:17:19;;;;;;;46.05;24.33;;;;;;;30.22;26.21;99639.44;4951987;29;20428;-91
2022/08/28 12:20:50;;;;;;;56.00;22.10;;;;;;;30.71;27.13;99681.78;4871831;29;20073;-91
2022/08/28 12:24:22;;;;;;;47.88;23.85;;;;;;;30.94;28.03;99683.63;4841446;29;20060;-91
2022/08/28 12:27:13;;;;;;;56.10;23.08;;;;;;;30.95;25.42;99666.25;4864757;29;20041;-91
2022/08/28 12:44:11;;;;;;;45.05;18.20;;;;;;;30.91;23.93;99620.38;4977153;23;20090;-90
2022/08/28 12:46:42;;;;;;;50.65;21.23;;;;;;;30.67;25.98;99605.69;4949627;28;20039;-90
2022/08/28 12:59:41;;;;;;;51.03;23.08;;;;;;;30.85;24.38;99637.06;4969690;28;20045;-91
2022/08/28 13:06:03;;;;;;;44.95;18.85;;;;;;;31.00;24.49;99605.63;4970518;23;20058;-89
2022/08/28 13:09:28;;;;;;;41.97;20.80;;;;;;;31.30;24.13;99650.38;4923631;29;20043;-91
2022/08/28 13:16:47;;;;;;;50.90;20.88;;;;;;;30.97;25.45;99648.88;4950660;28;20527;-90
2022/08/28 13:20:22;;;;;;;51.30;20.55;;;;;;;30.82;26.57;99657.69;4909202;29;20050;-89
2022/08/28 13:23:54;;;;;;;43.97;18.80;;;;;;;30.71;25.14;99648.69;4954804;28;20441;-91
2022/08/28 13:27:06;;;;;;;44.60;19.52;;;;;;;30.61;25.32;99644.91;4965650;23;20051;-90
2022/08/28 13:29:34;;;;;;;59.47;22.17;;;;;;;30.35;26.75;99618.56;4927104;29;20039;-91
2022/08/28 13:33:04;;;;;;;42.03;18.65;;;;;;;30.48;27.29;99646.06;4962360;28;20535;-90
2022/08/28 13:36:23;;;;;;;49.50;19.33;;;;;;;30.40;27.89;99648.28;5027157;23;20271;-90
2022/08/28 13:39:35;;;;;;;65.75;19.27;;;;;;;30.36;27.68;99656.00;4930220;29;20050;-90
2022/08/28 13:42:16;;;;;;;41.97;18.65;;;;;;;29.94;27.40;99597.38;4936331;29;20043;-93
2022/08/28 13:49:35;;;;;;;76.05;31.75;;;;;;;30.18;27.77;99653.59;4895527;29;20041;-88
2022/08/28 13:52:05;;;;;;;73.65;34.70;;;;;;;30.07;nan;99644.63;4882345;29;20575;-88
2022/08/28 13:54:39;;;;;;;73.55;27.35;;;;;;;29.97;30.14;99657.72;4880921;29;20180;-89
2022/08/28 13:57:23;;;;;;;58.03;25.25;;;;;;;29.88;29.96;99655.47;4864067;29;20136;-89
2022/08/28 14:00:20;;;;;;;73.20;26.70;;;;;;;29.59;29.66;99618.66;4880716;29;20048;-91
2022/08/28 14:05:31;;;;;;;70.20;26.42;;;;;;;29.48;29.93;99616.06;4954666;29;20488;-87
2022/08/28 14:07:58;;;;;;;84.85;25.73;;;;;;;29.60;30.11;99651.25;4939398;29;20090;-89
2022/08/28 14:10:24;;;;;;;79.25;25.98;;;;;;;29.40;30.57;99631.50;4908379;29;20047;-91
2022/08/28 14:12:58;;;;;;;61.83;27.08;;;;;;;29.31;29.99;99628.50;4958581;28;20042;-94
2022/08/28 14:15:46;;;;;;;81.80;28.55;;;;;;;29.30;30.60;99635.34;4953041;29;20416;-93
2022/08/28 14:18:19;;;;;;;78.57;31.38;;;;;;;29.32;31.08;99657.44;4940788;29;20055;-89
2022/08/28 14:20:46;;;;;;;147.23;34.30;;;;;;;29.03;31.88;99622.19;4908867;29;20520;-94
2022/08/28 14:23:18;;;;;;;94.15;32.60;;;;;;;28.95;31.72;99617.91;4911346;29;20051;-95
2022/08/28 14:25:46;;;;;;;100.28;34.88;;;;;;;28.82;31.96;99613.34;4928928;29;20055;-95
2022/08/28 14:28:21;;;;;;;90.63;35.03;;;;;;;28.55;31.68;99577.66;4886666;29;20048;-90
2022/08/28 14:31:43;;;;;;;106.50;38.28;;;;;;;28.83;32.05;99626.16;4910255;29;20040;-91
2022/08/28 14:35:00;;;;;;;130.20;40.72;;;;;;;28.88;33.53;99640.56;4873676;29;20040;-95
2022/08/28 14:38:28;;;;;;;100.18;40.17;;;;;;;28.77;32.92;99639.94;4893343;29;20044;-96
2022/08/28 14:40:54;;;;;;;115.20;45.38;;;;;;;28.38;32.69;99595.56;4901881;23;21168;-95
2022/08/28 14:43:21;;;;;;;110.43;45.25;;;;;;;28.49;33.65;99615.91;4962621;29;20050;-96
2022/08/28 14:45:53;;;;;;;137.93;49.13;;;;;;;28.08;33.30;99560.75;4944554;29;20149;-93
2022/08/28 14:48:23;;;;;;;117.75;49.00;;;;;;;28.14;33.51;99572.28;4945536;29;20059;-92
2022/08/28 14:50:49;;;;;;;119.63;49.63;;;;;;;28.21;33.46;99595.47;4955198;29;20413;-92
2022/08/28 14:53:16;;;;;;;133.02;52.85;;;;;;;28.08;33.71;99580.41;4943720;29;20047;-90
2022/08/28 14:55:58;;;;;;;131.48;51.30;;;;;;;27.89;34.14;99547.41;4943368;29;20050;-90
2022/08/28 14:58:49;;;;;;;129.95;52.05;;;;;;;28.36;33.54;99623.34;4944166;29;20523;-91
2022/08/28 15:01:44;;;;;;;110.80;49.67;;;;;;;28.32;34.40;99631.84;4961471;23;20508;-92
2022/08/28 15:04:14;;;;;;;133.35;52.67;;;;;;;28.08;34.31;99595.25;4944500;29;20047;-92
2022/08/28 15:06:44;;;;;;;143.77;53.08;;;;;;;28.22;34.02;99622.34;4947146;28;20101;-91
2022/08/28 15:09:12;;;;;;;146.98;55.05;;;;;;;28.06;34.50;99610.94;4964928;28;20134;-95
2022/08/28 15:11:44;;;;;;;138.75;55.42;;;;;;;28.11;33.75;99630.13;4932038;28;20563;-89
2022/08/28 15:28:44;;;;;;;144.90;59.63;;;;;;;27.52;34.40;99583.59;4946146;23;20146;-90
2022/08/28 15:31:35;;;;;;;158.07;64.38;;;;;;;27.43;33.71;99574.09;4948329;29;20047;-92
2022/08/28 15:36:59;;;;;;;159.75;68.55;;;;;;;27.32;34.04;99580.66;4990822;23;20892;-91
2022/08/28 15:51:55;;;;;;;174.98;74.25;;;;;;;26.56;35.77;99512.56;4931334;29;20418;-93
2022/08/28 15:54:22;;;;;;;154.15;67.45;;;;;;;26.53;37.45;99516.22;4878934;29;20044;-92
2022/08/28 15:57:13;;;;;;;171.05;80.25;;;;;;;27.00;36.36;99586.63;5027823;23;20062;-94
2022/08/28 16:00:44;;;;;;;178.93;78.97;;;;;;;26.91;35.36;99580.69;4936732;28;20047;-92
2022/08/28 16:03:21;;;;;;;201.45;73.47;;;;;;;26.82;35.14;99589.63;4912135;29;20068;-94
2022/08/28 16:05:47;;;;;;;192.10;79.35;;;;;;;26.21;36.10;99499.66;4947140;23;20075;-95
2022/08/28 16:08:14;;;;;;;174.15;72.82;;;;;;;26.61;35.96;99573.00;4945856;29;20046;-94
2022/08/28 16:10:49;;;;;;;176.18;70.38;;;;;;;26.45;35.70;99551.09;4930572;29;20035;-93
2022/08/28 16:13:18;;;;;;;194.23;73.13;;;;;;;26.39;36.67;99550.75;4928454;29;20429;-91
2022/08/28 16:15:46;;;;;;;193.98;74.00;;;;;;;26.53;36.53;99582.72;4912040;29;20087;-95
2022/08/28 16:18:31;;;;;;;207.15;79.93;;;;;;;26.33;37.28;99558.03;4949884;29;20047;-96
2022/08/28 16:24:44;;;;;;;187.98;80.82;;;;;;;26.30;36.38;99578.47;4539778;23;15222404;-95
2022/08/28 16:27:13;;;;;;;180.02;74.32;;;;;;;25.86;37.17;99511.97;5098372;23;20039;-93
2022/08/28 16:29:58;;;;;;;183.45;73.80;;;;;;;25.98;37.41;99553.50;5247073;23;20063;-92
2022/08/28 16:36:13;;;;;;;;;;;;;;;26.01;36.90;99570.28;4953453;28;20066;-92
2022/08/28 16:38:41;;;;;;;286.88;106.25;;;;;;;25.92;37.81;99564.34;4945257;29;20392;-93
2022/08/28 16:41:21;;;;;;;207.57;86.15;;;;;;;25.30;37.20;99481.94;4926564;29;20494;-94
2022/08/28 16:44:38;;;;;;;211.93;73.72;;;;;;;25.69;37.13;99550.06;4931458;29;20062;-91
2022/08/28 16:47:10;;;;;;;194.30;79.95;;;;;;;25.55;38.67;99537.75;4936617;29;20068;-89
2022/08/28 16:49:40;;;;;;;171.40;70.18;;;;;;;25.23;38.11;99484.78;4936223;29;20091;-91
2022/08/28 16:52:30;;;;;;;170.85;69.65;;;;;;;25.70;38.22;99568.47;4917961;29;20035;-92
2022/08/28 16:55:01;;;;;;;188.70;74.90;;;;;;;25.52;39.10;99555.34;4933322;28;20059;-94
2022/08/28 16:57:37;;;;;;;209.85;76.30;;;;;;;25.45;38.25;99549.81;5084915;23;20051;-93
2022/08/28 17:00:21;;;;;;;201.63;73.28;;;;;;;25.42;37.92;99549.81;4939348;23;20383;-94
2022/08/28 17:03:43;;;;;;;224.60;78.87;;;;;;;24.99;38.09;99492.03;4950716;23;20062;-91
2022/08/28 17:10:49;;;;;;;197.13;79.03;;;;;;;25.48;38.52;99581.78;4936064;28;20134;-90
2022/08/28 17:13:16;;;;;;;193.57;77.68;;;;;;;25.43;38.13;99563.44;4944011;29;20054;-92
2022/08/28 17:15:43;;;;;;;182.65;78.00;;;;;;;25.23;38.83;99537.13;4927167;29;20047;-90
2022/08/28 17:24:49;;;;;;;194.25;81.20;;;;;;;25.01;38.24;99514.03;4915221;29;20055;-89
2022/08/28 17:27:17;;;;;;;193.10;85.35;;;;;;;25.18;38.15;99540.34;4922247;29;20104;-89
2022/08/28 17:29:47;;;;;;;192.85;84.63;;;;;;;25.35;37.80;99573.03;4896923;29;20095;-91
2022/08/28 17:32:13;;;;;;;213.23;85.45;;;;;;;25.31;38.54;99564.66;4918189;28;20035;-88
2022/08/28 17:34:39;;;;;;;;;;;;;;;25.34;38.30;99574.25;4927609;29;20035;-86
2022/08/28 17:37:09;;;;;;;222.85;89.07;;;;;;;25.26;38.21;99559.47;4961011;29;19977;-87
2022/08/28 17:39:38;;;;;;;208.13;93.28;;;;;;;25.27;38.46;99557.50;4914473;29;20134;-86
2022/08/28 17:42:05;;;;;;;199.82;91.38;;;;;;;25.04;38.31;99530.78;4922477;29;20032;-91
2022/08/28 17:44:31;;;;;;;214.75;98.80;;;;;;;25.17;38.88;99549.97;4962060;28;20091;-88
2022/08/28 17:49:57;;;;;;;230.10;99.63;;;;;;;25.17;38.84;99549.97;4939433;29;20143;-91
2022/08/28 17:52:28;;;;;;;255.02;102.75;;;;;;;24.88;39.07;99502.47;4952020;23;20155;-93
2022/08/28 17:55:07;;;;;;;227.93;106.85;;;;;;;25.04;39.07;99538.38;5212415;23;20087;-91
2022/08/28 17:57:36;;;;;;;243.18;105.78;;;;;;;24.57;39.06;99473.44;4932676;23;20080;-89
2022/08/28 18:00:06;;;;;;;256.30;112.68;;;;;;;25.06;39.45;99550.75;4920585;29;20087;-88
2022/08/28 18:03:01;;;;;;;247.02;111.05;;;;;;;25.03;39.22;99540.38;4931683;29;20059;-87
2022/08/28 18:09:50;;;;;;;250.23;112.38;;;;;;;24.98;39.62;99549.19;5027111;23;20526;-89
2022/08/28 18:12:20;;;;;;;239.50;110.32;;;;;;;24.86;39.99;99541.22;4944444;28;20051;-91
2022/08/28 18:26:26;;;;;;;232.98;111.38;;;;;;;24.81;39.67;99542.44;4907727;29;20047;-88
2022/08/28 18:29:11;;;;;;;224.07;107.80;;;;;;;24.81;39.95;99547.25;4893869;29;20044;-92
2022/08/28 18:31:40;;;;;;;233.23;107.23;;;;;;;24.34;40.05;99482.25;4953454;28;20067;-87
2022/08/28 18:35:03;;;;;;;219.20;105.30;;;;;;;24.74;39.82;99538.88;4951341;29;20050;-87
2022/08/28 18:37:36;;;;;;;210.40;102.78;;;;;;;24.50;40.27;99518.16;4953159;29;20568;-86
2022/08/28 18:40:40;;;;;;;207.98;96.68;;;;;;;24.65;40.40;99550.47;4953073;29;20552;-86
2022/08/28 18:43:07;;;;;;;198.52;96.18;;;;;;;24.56;39.67;99538.91;4950154;29;20425;-91
2022/08/28 18:45:33;;;;;;;193.95;94.40;;;;;;;24.61;39.99;99546.91;4920429;29;20043;-86
2022/08/28 18:48:01;;;;;;;185.55;92.63;;;;;;;24.63;40.40;99549.28;4917579;29;20058;-89
2022/08/28 18:55:20;;;;;;;185.88;85.93;;;;;;;24.58;40.04;99553.28;4933204;29;20086;-92
2022/08/28 18:57:50;;;;;;;181.23;86.35;;;;;;;24.28;40.76;99498.63;4936615;29;20062;-90
2022/08/28 19:00:17;;;;;;;181.60;84.00;;;;;;;24.27;40.37;99490.63;4955324;28;20046;-86
2022/08/28 19:02:45;;;;;;;181.20;83.20;;;;;;;24.41;40.61;99510.19;4930795;29;20047;-94
2022/08/28 19:05:12;;;;;;;170.15;81.70;;;;;;;24.54;40.40;99533.72;4950170;29;20043;-87
2022/08/28 19:07:40;;;;;;;157.73;78.72;;;;;;;24.54;39.81;99535.75;4935549;29;20043;-88
2022/08/28 19:10:09;;;;;;;170.07;78.18;;;;;;;24.49;40.12;99538.94;4936335;29;20158;-95
2022/08/28 19:12:38;;;;;;;165.63;79.18;;;;;;;24.48;40.06;99531.75;4937666;29;20039;-89
2022/08/28 19:15:11;;;;;;;155.68;75.43;;;;;;;24.40;40.60;99525.31;4923129;29;20055;-96
2022/08/28 19:22:43;;;;;;;148.60;73.05;;;;;;;23.94;40.55;99459.16;4956605;29;20111;-89
2022/08/28 19:26:17;;;;;;;148.40;73.93;;;;;;;24.34;40.89;99521.38;4948732;28;20039;-89
2022/08/28 19:29:10;;;;;;;152.40;73.97;;;;;;;24.29;40.98;99524.56;4960524;29;20043;-90
2022/08/28 19:38:48;;;;;;;136.98;64.90;;;;;;;24.13;41.51;99511.00;6060023;23;19988;-93
2022/08/28 19:45:06;;;;;;;134.90;62.70;;;;;;;24.11;41.88;99519.78;4948847;28;20429;-95
2022/08/28 19:50:28;;;;;;;127.43;60.53;;;;;;;23.52;42.11;99437.59;5031790;23;20039;-92
2022/08/28 19:52:55;;;;;;;131.63;60.33;;;;;;;24.05;42.21;99518.59;4939500;29;20039;-96
2022/08/28 19:55:47;;;;;;;126.60;59.25;;;;;;;24.02;42.72;99516.59;4955073;29;20031;-94
2022/08/28 19:58:22;;;;;;;122.00;58.22;;;;;;;23.80;42.89;99487.06;4968260;28;20047;-91
2022/08/28 20:08:43;;;;;;;117.63;57.25;;;;;;;23.45;43.57;99455.13;4960958;29;20054;-96
2022/08/28 20:26:44;;;;;;;108.03;52.03;;;;;;;23.55;44.39;99506.56;4935972;28;20051;-94
2022/08/28 20:30:06;;;;;;;109.85;51.20;;;;;;;23.50;44.03;99513.31;4969773;28;20039;-96
2022/08/28 20:52:25;;;;;;;121.78;53.42;;;;;;;22.69;46.21;99426.19;4973357;28;20059;-91
2022/08/28 20:54:56;;;;;;;121.40;56.45;;;;;;;22.67;46.10;99427.78;4962490;28;20114;-88
2022/08/28 20:57:23;;;;;;;121.05;57.45;;;;;;;22.82;46.37;99450.94;4953236;28;20154;-89
2022/08/28 21:00:14;;;;;;;;;;;;;;;23.11;45.90;99502.84;4939387;29;20035;-89
2022/08/28 21:06:24;;;;;;;145.85;59.22;;;;;;;23.05;46.55;99498.06;4954995;29;20051;-95
2022/08/28 21:08:52;;;;;;;148.93;60.08;;;;;;;22.74;46.04;99464.81;4918898;29;20130;-91
2022/08/28 21:11:30;;;;;;;129.43;60.15;;;;;;;22.61;45.73;99434.91;4945050;29;20039;-95
2022/08/28 21:14:12;;;;;;;138.30;61.65;;;;;;;22.72;45.27;99455.28;4944311;29;20049;-88